CFG2PG EDDL-EDDH
Flight info
| Callsign | CFG2PG |
|---|---|
| Flight time | N/A |
| Altitude | 29000 |
| Route | MEVEL4T/23L MEVEL DCT EVDAL DCT BASUM DCT RIBSO RIBSO3P |
| Aircraft | A21N/M-SDE2E3FGHIRWXY/LB1 |
Departure
| Time | 2026-05-04 18:58 |
|---|---|
| Airport | Düsseldorf Airport (EDDL) |
Arrival
| Time | N/A |
|---|---|
| Airport | Hamburg Helmut Schmidt Airport (EDDH) |
| Time | Latitude | Longitude | Altitude | Speed | Heading |
|---|---|---|---|---|---|
| 2026-05-04 18:07 | 51.28338 | 6.77069 | 120 ft | 0 kts | 143° |
| 2026-05-04 18:08 | 51.28336 | 6.77071 | 123 ft | 0 kts | 143° |
| 2026-05-04 18:11 | 51.28154 | 6.76744 | 120 ft | 0 kts | 276° |
| 2026-05-04 18:27 | 51.28151 | 6.76771 | 120 ft | 4 kts | 289° |
| 2026-05-04 18:27 | 51.28138 | 6.76804 | 118 ft | 4 kts | 329° |
| 2026-05-04 18:27 | 51.28114 | 6.76813 | 118 ft | 4 kts | 7° |
| 2026-05-04 18:28 | 51.28099 | 6.76808 | 121 ft | 0 kts | 17° |
| 2026-05-04 18:31 | 51.28112 | 6.76815 | 118 ft | 5 kts | 17° |
| 2026-05-04 18:31 | 51.28154 | 6.76832 | 120 ft | 8 kts | 7° |
| 2026-05-04 18:31 | 51.28173 | 6.76835 | 122 ft | 3 kts | 6° |
| 2026-05-04 18:31 | 51.28188 | 6.76838 | 123 ft | 3 kts | 7° |
| 2026-05-04 18:32 | 51.28221 | 6.76844 | 123 ft | 6 kts | 6° |
| 2026-05-04 18:32 | 51.28267 | 6.76853 | 123 ft | 6 kts | 7° |
| 2026-05-04 18:32 | 51.28311 | 6.76862 | 123 ft | 7 kts | 7° |
| 2026-05-04 18:32 | 51.28370 | 6.76860 | 123 ft | 10 kts | 339° |
| 2026-05-04 18:33 | 51.28432 | 6.76796 | 121 ft | 12 kts | 322° |
| 2026-05-04 18:33 | 51.28507 | 6.76810 | 124 ft | 14 kts | 52° |
| 2026-05-04 18:33 | 51.28568 | 6.76939 | 122 ft | 15 kts | 52° |
| 2026-05-04 18:33 | 51.28636 | 6.77083 | 124 ft | 17 kts | 52° |
| 2026-05-04 18:34 | 51.28709 | 6.77236 | 123 ft | 18 kts | 53° |
| 2026-05-04 18:34 | 51.28789 | 6.77404 | 119 ft | 20 kts | 53° |
| 2026-05-04 18:34 | 51.28876 | 6.77586 | 118 ft | 21 kts | 52° |
| 2026-05-04 18:34 | 51.28965 | 6.77774 | 121 ft | 22 kts | 53° |
| 2026-05-04 18:35 | 51.29043 | 6.77938 | 123 ft | 16 kts | 53° |
| 2026-05-04 18:35 | 51.29101 | 6.78061 | 123 ft | 10 kts | 52° |
| 2026-05-04 18:35 | 51.29143 | 6.78147 | 122 ft | 10 kts | 53° |
| 2026-05-04 18:35 | 51.29186 | 6.78238 | 121 ft | 11 kts | 53° |
| 2026-05-04 18:36 | 51.29225 | 6.78321 | 122 ft | 8 kts | 52° |
| 2026-05-04 18:36 | 51.29227 | 6.78325 | 122 ft | 0 kts | 52° |
| 2026-05-04 18:37 | 51.29229 | 6.78328 | 122 ft | 1 kts | 52° |
| 2026-05-04 18:37 | 51.29238 | 6.78346 | 120 ft | 1 kts | 52° |
| 2026-05-04 18:38 | 51.29247 | 6.78366 | 123 ft | 4 kts | 52° |
| 2026-05-04 18:38 | 51.29275 | 6.78426 | 122 ft | 9 kts | 52° |
| 2026-05-04 18:38 | 51.29313 | 6.78506 | 123 ft | 8 kts | 53° |
| 2026-05-04 18:38 | 51.29340 | 6.78556 | 122 ft | 9 kts | 37° |
| 2026-05-04 18:39 | 51.29376 | 6.78572 | 121 ft | 0 kts | 3° |
| 2026-05-04 18:41 | 51.29382 | 6.78573 | 122 ft | 3 kts | 3° |
| 2026-05-04 18:41 | 51.29391 | 6.78574 | 123 ft | 0 kts | 2° |
| 2026-05-04 18:41 | 51.29405 | 6.78573 | 121 ft | 4 kts | 359° |
| 2026-05-04 18:42 | 51.29440 | 6.78569 | 123 ft | 0 kts | 355° |
| 2026-05-04 18:47 | 51.29449 | 6.78568 | 123 ft | 4 kts | 355° |
| 2026-05-04 18:47 | 51.29491 | 6.78564 | 122 ft | 9 kts | 356° |
| 2026-05-04 18:47 | 51.29551 | 6.78538 | 122 ft | 10 kts | 268° |
| 2026-05-04 18:48 | 51.29544 | 6.78522 | 124 ft | 0 kts | 234° |
| 2026-05-04 18:57 | 51.29491 | 6.78406 | 120 ft | 46 kts | 234° |
| 2026-05-04 18:57 | 51.29133 | 6.77658 | 122 ft | 122 kts | 232° |
| 2026-05-04 18:58 | 51.28529 | 6.76339 | 387 ft | 159 kts | 234° |
| 2026-05-04 18:58 | 51.27909 | 6.74883 | 1090 ft | 157 kts | 228° |
| 2026-05-04 18:58 | 51.27195 | 6.73538 | 1703 ft | 162 kts | 229° |
| 2026-05-04 18:58 | 51.26603 | 6.71968 | 2188 ft | 178 kts | 255° |
| 2026-05-04 18:59 | 51.26851 | 6.69961 | 2762 ft | 194 kts | 300° |
| 2026-05-04 18:59 | 51.27914 | 6.68577 | 3413 ft | 208 kts | 337° |
| 2026-05-04 18:59 | 51.29366 | 6.68398 | 4137 ft | 215 kts | 5° |
| 2026-05-04 18:59 | 51.30915 | 6.68650 | 4688 ft | 235 kts | 5° |
| 2026-05-04 19:00 | 51.32633 | 6.68878 | 5149 ft | 259 kts | 4° |
| 2026-05-04 19:00 | 51.34486 | 6.69094 | 5775 ft | 273 kts | 4° |
| 2026-05-04 19:00 | 51.36404 | 6.69309 | 6619 ft | 279 kts | 4° |
| 2026-05-04 19:00 | 51.38340 | 6.69517 | 7484 ft | 282 kts | 3° |
| 2026-05-04 19:01 | 51.40318 | 6.69590 | 8415 ft | 284 kts | 1° |
| 2026-05-04 19:01 | 51.42302 | 6.69594 | 9321 ft | 286 kts | 1° |
| 2026-05-04 19:01 | 51.44307 | 6.69595 | 10151 ft | 291 kts | 1° |
| 2026-05-04 19:01 | 51.46403 | 6.69603 | 10501 ft | 312 kts | 1° |
| 2026-05-04 19:02 | 51.48618 | 6.69616 | 10794 ft | 332 kts | 1° |
| 2026-05-04 19:02 | 51.51035 | 6.69624 | 11081 ft | 353 kts | 1° |
| 2026-05-04 19:02 | 51.53557 | 6.69628 | 11421 ft | 370 kts | 1° |
| 2026-05-04 19:02 | 51.56159 | 6.69629 | 12081 ft | 377 kts | 0° |
| 2026-05-04 19:03 | 51.58785 | 6.69862 | 12819 ft | 380 kts | 10° |
| 2026-05-04 19:03 | 51.61319 | 6.71093 | 13531 ft | 383 kts | 26° |
| 2026-05-04 19:03 | 51.63554 | 6.73432 | 14212 ft | 385 kts | 41° |
| 2026-05-04 19:03 | 51.65339 | 6.76663 | 14860 ft | 387 kts | 53° |
| 2026-05-04 19:04 | 51.66935 | 6.80203 | 15384 ft | 395 kts | 55° |
| 2026-05-04 19:04 | 51.68559 | 6.83822 | 15912 ft | 402 kts | 55° |
| 2026-05-04 19:04 | 51.70224 | 6.87497 | 16550 ft | 407 kts | 55° |
| 2026-05-04 19:04 | 51.71909 | 6.91199 | 17193 ft | 411 kts | 55° |
| 2026-05-04 19:05 | 51.73600 | 6.94920 | 17808 ft | 416 kts | 55° |
| 2026-05-04 19:05 | 51.75316 | 6.98692 | 18382 ft | 420 kts | 55° |
| 2026-05-04 19:05 | 51.77059 | 7.02499 | 18870 ft | 424 kts | 54° |
| 2026-05-04 19:05 | 51.78804 | 7.06291 | 19333 ft | 428 kts | 54° |
| 2026-05-04 19:06 | 51.80575 | 7.10169 | 19783 ft | 431 kts | 54° |
| 2026-05-04 19:06 | 51.82367 | 7.14099 | 20206 ft | 435 kts | 54° |
| 2026-05-04 19:06 | 51.84167 | 7.18057 | 20611 ft | 438 kts | 54° |
| 2026-05-04 19:06 | 51.86163 | 7.22098 | 21008 ft | 442 kts | 48° |
| 2026-05-04 19:07 | 51.88218 | 7.25606 | 21361 ft | 445 kts | 47° |
| 2026-05-04 19:07 | 51.90381 | 7.29243 | 21841 ft | 449 kts | 47° |
| 2026-05-04 19:07 | 51.92555 | 7.32908 | 22332 ft | 453 kts | 47° |
| 2026-05-04 19:07 | 51.94750 | 7.36614 | 22756 ft | 458 kts | 47° |
| 2026-05-04 19:08 | 51.96970 | 7.40378 | 23186 ft | 463 kts | 47° |
| 2026-05-04 19:08 | 51.99205 | 7.44176 | 23624 ft | 467 kts | 47° |
| 2026-05-04 19:08 | 52.01463 | 7.48013 | 24014 ft | 471 kts | 46° |
| 2026-05-04 19:08 | 52.03730 | 7.51873 | 24409 ft | 475 kts | 46° |
| 2026-05-04 19:09 | 52.06016 | 7.55773 | 24806 ft | 478 kts | 47° |
| 2026-05-04 19:09 | 52.08317 | 7.59712 | 25192 ft | 481 kts | 47° |
| 2026-05-04 19:09 | 52.10633 | 7.63679 | 25590 ft | 485 kts | 47° |
| 2026-05-04 19:09 | 52.12976 | 7.67657 | 25988 ft | 488 kts | 46° |
| 2026-05-04 19:10 | 52.15339 | 7.71646 | 26428 ft | 489 kts | 46° |
| 2026-05-04 19:10 | 52.17696 | 7.75629 | 26918 ft | 489 kts | 46° |
| 2026-05-04 19:10 | 52.20056 | 7.79637 | 27419 ft | 489 kts | 46° |
| 2026-05-04 19:10 | 52.22407 | 7.83639 | 27917 ft | 489 kts | 46° |
| 2026-05-04 19:11 | 52.24783 | 7.87638 | 28415 ft | 489 kts | 44° |
| 2026-05-04 19:11 | 52.27497 | 7.90937 | 28850 ft | 488 kts | 29° |
| 2026-05-04 19:11 | 52.30485 | 7.93572 | 28977 ft | 489 kts | 25° |
| 2026-05-04 19:11 | 52.33500 | 7.96141 | 28994 ft | 488 kts | 26° |
| 2026-05-04 19:12 | 52.42455 | 8.04079 | 28967 ft | 488 kts | 27° |
| 2026-05-04 19:13 | 52.48388 | 8.09441 | 28830 ft | 484 kts | 27° |
| 2026-05-04 19:13 | 52.51318 | 8.12096 | 27837 ft | 485 kts | 27° |
| 2026-05-04 19:13 | 52.54295 | 8.14800 | 26692 ft | 489 kts | 27° |
| 2026-05-04 19:13 | 52.57265 | 8.17498 | 25802 ft | 487 kts | 28° |
| 2026-05-04 19:14 | 52.60209 | 8.20184 | 25139 ft | 479 kts | 28° |
| 2026-05-04 19:14 | 52.63100 | 8.22843 | 24543 ft | 470 kts | 28° |
| 2026-05-04 19:14 | 52.64976 | 8.24562 | 24181 ft | 466 kts | 28° |
| 2026-05-04 19:14 | 52.67797 | 8.27153 | 23642 ft | 461 kts | 28° |
| 2026-05-04 19:15 | 52.70591 | 8.29713 | 23025 ft | 456 kts | 28° |
| 2026-05-04 19:15 | 52.73348 | 8.32223 | 22408 ft | 450 kts | 28° |
| 2026-05-04 19:15 | 52.76963 | 8.35504 | 21608 ft | 442 kts | 27° |
| 2026-05-04 19:15 | 52.79636 | 8.37956 | 21144 ft | 438 kts | 28° |
| 2026-05-04 19:16 | 52.81391 | 8.39588 | 21000 ft | 436 kts | 28° |
| 2026-05-04 19:16 | 52.84034 | 8.42055 | 20943 ft | 435 kts | 28° |
| 2026-05-04 19:16 | 52.86679 | 8.44506 | 20958 ft | 435 kts | 28° |
| 2026-05-04 19:16 | 52.89332 | 8.46947 | 20965 ft | 435 kts | 28° |
| 2026-05-04 19:17 | 52.91978 | 8.49395 | 20958 ft | 435 kts | 28° |
| 2026-05-04 19:17 | 52.94662 | 8.51876 | 20784 ft | 433 kts | 28° |
| 2026-05-04 19:17 | 52.97257 | 8.54271 | 20489 ft | 432 kts | 27° |
| 2026-05-04 19:17 | 52.99913 | 8.56726 | 20118 ft | 429 kts | 27° |
| 2026-05-04 19:18 | 53.02480 | 8.59111 | 19744 ft | 426 kts | 27° |
| 2026-05-04 19:18 | 53.05059 | 8.61502 | 19398 ft | 423 kts | 27° |
| 2026-05-04 19:18 | 53.07620 | 8.63883 | 19076 ft | 420 kts | 27° |
| 2026-05-04 19:18 | 53.10165 | 8.66264 | 18762 ft | 418 kts | 27° |
| 2026-05-04 19:19 | 53.12687 | 8.68619 | 18462 ft | 415 kts | 27° |
| 2026-05-04 19:19 | 53.15197 | 8.70965 | 18130 ft | 412 kts | 27° |
| 2026-05-04 19:19 | 53.17725 | 8.73336 | 17777 ft | 420 kts | 28° |
| 2026-05-04 19:19 | 53.20232 | 8.75694 | 17419 ft | 409 kts | 27° |
| 2026-05-04 19:20 | 53.22701 | 8.78016 | 17080 ft | 407 kts | 27° |
| 2026-05-04 19:20 | 53.25165 | 8.80340 | 16736 ft | 405 kts | 27° |
| 2026-05-04 19:20 | 53.27609 | 8.82653 | 16405 ft | 403 kts | 27° |
| 2026-05-04 19:20 | 53.30041 | 8.84968 | 16055 ft | 401 kts | 28° |
| 2026-05-04 19:21 | 53.32461 | 8.87266 | 15739 ft | 399 kts | 27° |
| 2026-05-04 19:21 | 53.34878 | 8.89557 | 15412 ft | 397 kts | 27° |
| 2026-05-04 19:21 | 53.37281 | 8.91825 | 15088 ft | 396 kts | 27° |
| 2026-05-04 19:21 | 53.39674 | 8.94082 | 14770 ft | 394 kts | 28° |
| 2026-05-04 19:22 | 53.42058 | 8.96338 | 14464 ft | 393 kts | 27° |
| 2026-05-04 19:22 | 53.44439 | 8.98594 | 14150 ft | 392 kts | 27° |
| 2026-05-04 19:22 | 53.46808 | 9.00845 | 13852 ft | 390 kts | 28° |
| 2026-05-04 19:22 | 53.49133 | 9.03060 | 13522 ft | 388 kts | 28° |
| 2026-05-04 19:23 | 53.51478 | 9.05299 | 13184 ft | 386 kts | 28° |
| 2026-05-04 19:23 | 53.53838 | 9.07557 | 12846 ft | 384 kts | 28° |
| 2026-05-04 19:23 | 53.56160 | 9.09782 | 12509 ft | 382 kts | 28° |
| 2026-05-04 19:23 | 53.58434 | 9.11962 | 12179 ft | 381 kts | 28° |
| 2026-05-04 19:24 | 53.60762 | 9.14196 | 11887 ft | 379 kts | 28° |
| 2026-05-04 19:24 | 53.63041 | 9.16388 | 11624 ft | 377 kts | 28° |
| 2026-05-04 19:24 | 53.65296 | 9.18563 | 11366 ft | 365 kts | 27° |
| 2026-05-04 19:24 | 53.67424 | 9.20626 | 11149 ft | 351 kts | 27° |
| 2026-05-04 19:25 | 53.69529 | 9.22672 | 10896 ft | 338 kts | 27° |
| 2026-05-04 19:25 | 53.71512 | 9.24589 | 10638 ft | 327 kts | 27° |
| 2026-05-04 19:25 | 53.73459 | 9.26463 | 10386 ft | 317 kts | 27° |
| 2026-05-04 19:25 | 53.75344 | 9.28282 | 10143 ft | 307 kts | 27° |
| 2026-05-04 19:26 | 53.77182 | 9.30057 | 9917 ft | 303 kts | 27° |
| 2026-05-04 19:26 | 53.78994 | 9.31891 | 9673 ft | 303 kts | 30° |
| 2026-05-04 19:26 | 53.80640 | 9.34090 | 9428 ft | 304 kts | 46° |
| 2026-05-04 19:26 | 53.81696 | 9.37174 | 9184 ft | 305 kts | 72° |
| 2026-05-04 19:27 | 53.82180 | 9.40653 | 8964 ft | 304 kts | 79° |
| 2026-05-04 19:27 | 53.82572 | 9.44165 | 8733 ft | 303 kts | 79° |
| 2026-05-04 19:27 | 53.82967 | 9.47663 | 8488 ft | 301 kts | 79° |
| 2026-05-04 19:27 | 53.83370 | 9.51123 | 8255 ft | 300 kts | 79° |
| 2026-05-04 19:28 | 53.83594 | 9.53024 | 8131 ft | 299 kts | 79° |
| 2026-05-04 19:28 | 53.83609 | 9.53150 | 8120 ft | 299 kts | 79° |
| 2026-05-04 19:28 | 53.83672 | 9.53686 | 8088 ft | 299 kts | 79° |
| 2026-05-04 19:28 | 53.84079 | 9.57127 | 7855 ft | 297 kts | 79° |
| 2026-05-04 19:29 | 53.84343 | 9.59352 | 7713 ft | 297 kts | 79° |